createdAt,value
2019-04-01T00:00:51.829Z,11.60
2019-04-01T00:03:20.244Z,11.60
2019-04-01T00:05:48.736Z,11.60
2019-04-01T00:08:17.126Z,11.60
2019-04-01T00:10:45.534Z,11.60
2019-04-01T00:13:14.892Z,11.60
2019-04-01T00:15:43.286Z,11.70
2019-04-01T00:18:11.702Z,11.70
2019-04-01T00:20:40.122Z,11.80
2019-04-01T00:23:08.633Z,11.70
2019-04-01T00:25:37.206Z,11.80
2019-04-01T00:28:05.619Z,11.70
2019-04-01T00:30:34.027Z,11.70
2019-04-01T00:33:02.709Z,11.70
2019-04-01T00:35:31.123Z,11.60
2019-04-01T00:37:59.552Z,11.60
2019-04-01T00:40:27.969Z,11.60
2019-04-01T00:43:13.058Z,11.60
2019-04-01T00:45:43.125Z,11.50
2019-04-01T00:48:12.464Z,11.50
2019-04-01T00:50:40.871Z,11.40
2019-04-01T00:53:09.278Z,11.30
2019-04-01T00:55:37.691Z,11.30
2019-04-01T00:58:06.086Z,11.20
2019-04-01T01:00:34.507Z,11.20
2019-04-01T01:03:03.911Z,11.10
2019-04-01T01:05:32.322Z,11.10
2019-04-01T01:08:00.731Z,11.00
2019-04-01T01:10:29.197Z,11.00
2019-04-01T01:12:57.626Z,10.90
2019-04-01T01:15:26.037Z,10.90
2019-04-01T01:17:54.474Z,10.90
2019-04-01T01:20:22.853Z,10.80
2019-04-01T01:22:51.292Z,10.60
2019-04-01T01:25:19.756Z,10.50
2019-04-01T01:27:48.167Z,10.50
2019-04-01T01:30:16.633Z,10.40
2019-04-01T01:32:45.045Z,10.40
2019-04-01T01:35:13.625Z,10.40
2019-04-01T01:37:42.043Z,10.30
2019-04-01T01:40:10.525Z,10.30
2019-04-01T01:42:38.933Z,10.30
2019-04-01T01:45:07.663Z,10.20
2019-04-01T01:47:36.083Z,10.10
2019-04-01T01:50:06.609Z,10.00
2019-04-01T01:52:35.093Z,10.00
2019-04-01T01:55:03.493Z,10.00
2019-04-01T01:57:31.908Z,9.90
2019-04-01T02:00:00.502Z,9.80
2019-04-01T02:02:29.008Z,9.70
2019-04-01T02:04:57.431Z,9.70
2019-04-01T02:07:25.889Z,9.60
2019-04-01T02:09:54.316Z,9.50
2019-04-01T02:12:22.705Z,9.40
2019-04-01T02:14:51.111Z,9.30
2019-04-01T02:17:19.513Z,9.20
2019-04-01T02:19:47.916Z,9.10
2019-04-01T02:22:16.345Z,9.10
2019-04-01T02:24:44.732Z,9.10
2019-04-01T02:27:13.153Z,9.00
2019-04-01T02:29:41.538Z,9.00
2019-04-01T02:32:09.968Z,8.90
2019-04-01T02:34:38.382Z,8.90
2019-04-01T02:37:06.786Z,8.90
2019-04-01T02:39:35.188Z,8.80
2019-04-01T02:42:03.967Z,8.70
2019-04-01T02:44:32.377Z,8.70
2019-04-01T02:47:00.777Z,8.70
2019-04-01T02:49:29.174Z,8.70
2019-04-01T02:51:57.581Z,8.70
2019-04-01T02:54:26.016Z,8.60
2019-04-01T02:56:54.577Z,8.60
2019-04-01T02:59:23.839Z,8.60
2019-04-01T03:02:04.499Z,8.70
2019-04-01T03:04:32.893Z,8.70
2019-04-01T03:07:01.286Z,8.70
2019-04-01T03:09:29.714Z,8.70
2019-04-01T03:11:58.107Z,8.70
2019-04-01T03:14:26.524Z,8.60
2019-04-01T03:16:54.894Z,8.60
2019-04-01T03:19:23.311Z,8.60
2019-04-01T03:21:51.747Z,8.60
2019-04-01T03:24:20.221Z,8.60
2019-04-01T03:26:48.636Z,8.50
2019-04-01T03:29:17.053Z,8.40
2019-04-01T03:31:57.617Z,8.40
2019-04-01T03:34:26.089Z,8.30
2019-04-01T03:36:56.416Z,8.30
2019-04-01T03:39:24.814Z,8.30
2019-04-01T03:41:53.206Z,8.30
2019-04-01T03:44:21.622Z,8.30
2019-04-01T03:46:50.024Z,8.30
2019-04-01T03:49:19.357Z,8.20
2019-04-01T03:51:47.752Z,8.20
2019-04-01T03:54:16.173Z,8.20
2019-04-01T03:56:44.578Z,8.00
2019-04-01T03:59:12.999Z,8.00
2019-04-01T04:01:41.396Z,7.90
2019-04-01T04:04:09.806Z,7.90
2019-04-01T04:06:39.118Z,7.90
2019-04-01T04:09:07.535Z,7.90
2019-04-01T04:11:35.941Z,7.80
2019-04-01T04:14:04.354Z,7.80
2019-04-01T04:16:32.747Z,7.80
2019-04-01T04:19:01.149Z,7.80
2019-04-01T04:21:29.558Z,7.80
2019-04-01T04:23:57.966Z,7.80
2019-04-01T04:26:26.374Z,7.70
2019-04-01T04:28:54.781Z,7.70
2019-04-01T04:31:23.191Z,7.70
2019-04-01T04:33:51.602Z,7.70
2019-04-01T04:36:19.992Z,7.70
2019-04-01T04:38:48.410Z,7.70
2019-04-01T04:41:16.826Z,7.70
2019-04-01T04:43:46.164Z,7.70
2019-04-01T04:46:14.570Z,7.70
2019-04-01T04:48:42.959Z,7.60
2019-04-01T04:51:11.376Z,7.60
2019-04-01T04:53:39.776Z,7.60
2019-04-01T04:56:08.177Z,7.50
2019-04-01T04:58:36.583Z,7.50
2019-04-01T05:01:05.147Z,7.60
2019-04-01T05:03:33.535Z,7.60
2019-04-01T05:06:01.937Z,7.60
2019-04-01T05:08:30.337Z,7.50
2019-04-01T05:10:58.765Z,7.50
2019-04-01T05:13:27.153Z,7.50
2019-04-01T05:15:55.583Z,7.50
2019-04-01T05:18:24.060Z,7.50
2019-04-01T05:20:53.130Z,7.50
2019-04-01T05:23:21.994Z,7.50
2019-04-01T05:25:51.412Z,7.60
2019-04-01T05:28:20.483Z,7.60
2019-04-01T05:30:50.805Z,7.50
2019-04-01T05:33:21.982Z,7.50
2019-04-01T05:35:50.473Z,7.60
2019-04-01T05:38:19.115Z,7.60
2019-04-01T05:40:48.642Z,7.60
2019-04-01T05:43:17.112Z,7.60
2019-04-01T05:45:45.523Z,7.60
2019-04-01T05:48:14.979Z,7.70
2019-04-01T05:50:43.549Z,7.70
2019-04-01T05:53:12.033Z,7.70
2019-04-01T05:55:40.463Z,7.80
2019-04-01T05:58:08.867Z,7.90
2019-04-01T06:00:48.040Z,7.90
2019-04-01T06:03:16.414Z,7.90
2019-04-01T06:05:44.882Z,8.00
2019-04-01T06:08:13.354Z,8.00
2019-04-01T06:10:41.843Z,8.00
2019-04-01T06:13:10.238Z,8.10
2019-04-01T06:15:38.728Z,8.20
2019-04-01T06:18:07.129Z,8.20
2019-04-01T06:20:35.529Z,8.30
2019-04-01T06:23:04.070Z,8.30
2019-04-01T06:25:32.482Z,8.30
2019-04-01T06:28:00.946Z,8.40
2019-04-01T06:30:29.417Z,8.50
2019-04-01T06:32:57.954Z,8.60
2019-04-01T06:35:26.427Z,8.70
2019-04-01T06:37:54.882Z,8.70
2019-04-01T06:40:23.355Z,8.80
2019-04-01T06:43:11.124Z,8.80
2019-04-01T06:45:39.617Z,8.90
2019-04-01T06:48:07.998Z,9.10
2019-04-01T06:50:36.416Z,9.10
2019-04-01T06:53:13.644Z,9.20
2019-04-01T06:55:42.120Z,9.20
2019-04-01T06:58:12.117Z,9.30
2019-04-01T07:00:40.720Z,9.40
2019-04-01T07:03:09.128Z,9.50
2019-04-01T07:05:37.605Z,9.60
2019-04-01T07:08:06.027Z,9.70
2019-04-01T07:10:35.368Z,9.80
2019-04-01T07:13:03.857Z,10.00
2019-04-01T07:15:32.256Z,10.20
2019-04-01T07:18:01.048Z,10.30
2019-04-01T07:20:29.439Z,10.50
2019-04-01T07:22:57.932Z,10.50
2019-04-01T07:25:28.046Z,10.70
2019-04-01T07:27:56.472Z,10.90
2019-04-01T07:30:26.807Z,11.00
2019-04-01T07:32:55.213Z,11.20
2019-04-01T07:35:23.632Z,11.10
2019-04-01T07:37:52.383Z,11.20
2019-04-01T07:40:20.868Z,11.40
2019-04-01T07:42:49.349Z,11.60
2019-04-01T07:45:17.821Z,11.60
2019-04-01T07:47:46.416Z,11.70
2019-04-01T07:50:15.283Z,11.80
2019-04-01T07:53:03.149Z,12.00
2019-04-01T07:55:31.629Z,12.20
2019-04-01T07:58:00.079Z,12.30
2019-04-01T08:00:28.462Z,12.40
2019-04-01T08:02:57.248Z,12.60
2019-04-01T08:05:26.227Z,12.70
2019-04-01T08:07:55.132Z,12.90
2019-04-01T08:10:23.536Z,12.90
2019-04-01T08:12:51.961Z,13.00
2019-04-01T08:15:21.527Z,13.20
2019-04-01T08:17:50.112Z,13.30
2019-04-01T08:20:18.683Z,13.40
2019-04-01T08:22:47.464Z,13.50
2019-04-01T08:25:15.887Z,13.50
2019-04-01T08:27:44.300Z,13.60
2019-04-01T08:30:12.850Z,13.60
2019-04-01T08:32:41.329Z,13.80
2019-04-01T08:35:10.069Z,13.90
2019-04-01T08:37:40.514Z,14.10
2019-04-01T08:40:08.939Z,14.30
2019-04-01T08:42:38.267Z,14.50
2019-04-01T08:45:08.109Z,14.50
2019-04-01T08:47:36.598Z,14.70
2019-04-01T08:50:06.760Z,14.90
2019-04-01T08:52:35.679Z,14.80
2019-04-01T08:55:06.435Z,14.90
2019-04-01T08:57:34.999Z,15.00
2019-04-01T09:00:04.629Z,15.00
2019-04-01T09:02:33.047Z,15.20
2019-04-01T09:05:01.444Z,15.40
2019-04-01T09:07:30.000Z,15.40
2019-04-01T09:09:58.530Z,15.40
2019-04-01T09:12:47.805Z,15.30
2019-04-01T09:15:16.338Z,15.50
2019-04-01T09:17:44.763Z,15.70
2019-04-01T09:20:13.230Z,15.90
2019-04-01T09:22:41.668Z,16.00
2019-04-01T09:25:10.076Z,16.00
2019-04-01T09:27:38.498Z,16.30
2019-04-01T09:30:07.857Z,16.50
2019-04-01T09:32:37.192Z,16.60
2019-04-01T09:35:07.137Z,16.90
2019-04-01T09:37:35.551Z,17.10
2019-04-01T09:40:24.807Z,17.20
2019-04-01T09:42:53.228Z,17.20
2019-04-01T09:45:21.652Z,17.40
2019-04-01T09:47:50.057Z,17.20
2019-04-01T09:50:26.520Z,17.40
2019-04-01T09:52:55.023Z,17.50
2019-04-01T09:55:23.429Z,17.80
2019-04-01T09:57:51.842Z,18.10
2019-04-01T10:00:20.684Z,18.30
2019-04-01T10:02:49.403Z,18.30
2019-04-01T10:05:17.843Z,18.50
2019-04-01T10:07:46.366Z,18.60
2019-04-01T10:10:15.098Z,18.40
2019-04-01T10:12:43.521Z,18.10
2019-04-01T10:15:12.473Z,18.30
2019-04-01T10:17:40.939Z,18.00
2019-04-01T10:20:09.486Z,17.70
2019-04-01T10:22:37.879Z,17.70
2019-04-01T10:25:06.450Z,18.00
2019-04-01T10:27:34.865Z,18.20
2019-04-01T10:30:04.924Z,18.40
2019-04-01T10:32:33.328Z,18.50
2019-04-01T10:35:01.761Z,18.80
2019-04-01T10:37:30.167Z,18.50
2019-04-01T10:40:00.403Z,18.50
2019-04-01T10:42:28.715Z,18.50
2019-04-01T10:44:57.131Z,18.70
2019-04-01T10:47:25.585Z,18.60
2019-04-01T10:49:54.150Z,18.90
2019-04-01T10:52:22.615Z,19.10
2019-04-01T10:54:51.062Z,18.80
2019-04-01T10:57:19.466Z,18.60
2019-04-01T10:59:47.973Z,18.30
2019-04-01T11:02:18.418Z,18.40
2019-04-01T11:04:46.598Z,18.60
2019-04-01T11:07:15.066Z,18.60
2019-04-01T11:09:43.507Z,18.60
2019-04-01T11:12:11.916Z,18.80
2019-04-01T11:15:01.596Z,19.10
2019-04-01T11:17:29.991Z,19.10
2019-04-01T11:19:58.582Z,19.00
2019-04-01T11:22:26.997Z,18.90
2019-04-01T11:24:55.427Z,18.70
2019-04-01T11:27:23.828Z,18.90
2019-04-01T11:29:52.246Z,18.80
2019-04-01T11:32:20.876Z,18.90
2019-04-01T11:34:55.870Z,19.10
2019-04-01T11:37:22.507Z,19.10
2019-04-01T11:39:51.023Z,19.00
2019-04-01T11:42:19.446Z,19.20
2019-04-01T11:44:47.891Z,19.40
2019-04-01T11:47:22.611Z,19.50
2019-04-01T11:49:51.082Z,19.80
2019-04-01T11:52:19.588Z,19.80
2019-04-01T11:54:48.025Z,20.00
2019-04-01T11:57:16.418Z,20.00
2019-04-01T11:59:44.846Z,20.10
2019-04-01T12:02:13.247Z,20.10
2019-04-01T12:04:41.659Z,20.20
2019-04-01T12:07:10.056Z,20.10
2019-04-01T12:09:38.480Z,20.20
2019-04-01T12:12:06.874Z,20.30
2019-04-01T12:14:35.603Z,20.40
2019-04-01T12:17:04.005Z,20.70
2019-04-01T12:19:32.436Z,20.80
2019-04-01T12:22:00.843Z,20.90
2019-04-01T12:24:29.259Z,20.70
2019-04-01T12:26:57.659Z,20.40
2019-04-01T12:29:26.172Z,20.50
2019-04-01T12:31:54.568Z,20.60
2019-04-01T12:34:23.260Z,20.40
2019-04-01T12:36:51.662Z,20.50
2019-04-01T12:39:20.096Z,20.50
2019-04-01T12:41:48.517Z,20.50
2019-04-01T12:44:16.938Z,20.00
2019-04-01T12:46:46.375Z,19.80
2019-04-01T12:49:14.855Z,20.00
2019-04-01T12:51:43.322Z,20.00
2019-04-01T12:54:11.745Z,20.20
2019-04-01T12:56:40.161Z,20.50
2019-04-01T12:59:08.571Z,20.90
2019-04-01T13:01:36.992Z,21.10
2019-04-01T13:04:05.483Z,21.40
2019-04-01T13:06:33.909Z,21.70
2019-04-01T13:09:04.088Z,22.00
2019-04-01T13:11:32.596Z,21.90
2019-04-01T13:14:00.989Z,21.60
2019-04-01T13:16:29.480Z,21.50
2019-04-01T13:18:57.881Z,21.50
2019-04-01T13:21:26.323Z,21.60
2019-04-01T13:23:54.784Z,21.50
2019-04-01T13:26:23.207Z,21.80
2019-04-01T13:28:51.608Z,21.40
2019-04-01T13:31:20.042Z,21.20
2019-04-01T13:33:48.458Z,20.90
2019-04-01T13:36:16.886Z,20.70
2019-04-01T13:38:45.299Z,20.60
2019-04-01T13:41:15.620Z,20.40
2019-04-01T13:43:43.884Z,20.30
2019-04-01T13:46:12.307Z,20.30
2019-04-01T13:48:57.874Z,20.60
2019-04-01T13:51:22.975Z,20.70
2019-04-01T13:53:51.377Z,21.10
2019-04-01T13:56:19.813Z,21.20
2019-04-01T13:58:51.312Z,21.30
2019-04-01T14:01:19.725Z,21.20
2019-04-01T14:03:48.195Z,21.50
2019-04-01T14:06:16.631Z,21.50
2019-04-01T14:08:45.025Z,21.70
2019-04-01T14:11:20.676Z,21.80
2019-04-01T14:13:49.417Z,21.80
2019-04-01T14:16:17.836Z,21.60
2019-04-01T14:18:46.245Z,21.70
2019-04-01T14:21:17.477Z,21.90
2019-04-01T14:23:44.789Z,22.10
2019-04-01T14:26:13.467Z,22.20
2019-04-01T14:28:41.874Z,22.20
2019-04-01T14:31:10.297Z,22.10
2019-04-01T14:33:58.471Z,22.30
2019-04-01T14:36:27.362Z,22.20
2019-04-01T14:38:56.724Z,22.20
2019-04-01T14:41:25.153Z,22.00
2019-04-01T14:43:55.133Z,22.00
2019-04-01T14:46:24.201Z,22.00
2019-04-01T14:48:52.643Z,21.80
2019-04-01T14:51:21.059Z,21.90
2019-04-01T14:53:49.503Z,22.00
2019-04-01T14:56:17.933Z,21.90
2019-04-01T14:58:46.357Z,21.80
2019-04-01T15:01:14.843Z,21.70
2019-04-01T15:03:43.316Z,21.40
2019-04-01T15:06:11.729Z,21.30
2019-04-01T15:08:40.140Z,21.10
2019-04-01T15:11:12.226Z,20.60
2019-04-01T15:13:40.842Z,20.40
2019-04-01T15:16:09.245Z,20.30
2019-04-01T15:18:41.273Z,20.30
2019-04-01T15:21:11.657Z,20.50
2019-04-01T15:23:39.960Z,20.70
2019-04-01T15:26:08.391Z,20.90
2019-04-01T15:28:45.884Z,21.00
2019-04-01T15:31:14.304Z,20.90
2019-04-01T15:33:42.715Z,20.90
2019-04-01T15:36:12.525Z,21.00
2019-04-01T15:38:40.937Z,20.80
2019-04-01T15:41:09.385Z,20.70
2019-04-01T15:43:37.822Z,20.50
2019-04-01T15:46:06.572Z,20.30
2019-04-01T15:48:36.617Z,20.20
2019-04-01T15:51:05.222Z,19.90
2019-04-01T15:53:34.733Z,19.80
2019-04-01T15:56:03.396Z,19.80
2019-04-01T15:58:32.788Z,19.70
2019-04-01T16:01:01.329Z,19.70
2019-04-01T16:03:30.095Z,19.60
2019-04-01T16:05:58.500Z,19.60
2019-04-01T16:08:26.925Z,19.50
2019-04-01T16:10:55.331Z,19.40
2019-04-01T16:13:23.759Z,19.30
2019-04-01T16:15:52.202Z,19.30
2019-04-01T16:18:20.659Z,19.30
2019-04-01T16:20:49.058Z,19.30
2019-04-01T16:23:18.924Z,19.30
2019-04-01T16:25:47.649Z,19.30
2019-04-01T16:28:16.137Z,19.30
2019-04-01T16:30:44.535Z,19.20
2019-04-01T16:33:13.050Z,19.10
2019-04-01T16:35:41.439Z,19.20
2019-04-01T16:38:09.941Z,19.20
2019-04-01T16:40:38.329Z,19.20
2019-04-01T16:43:26.096Z,19.20
2019-04-01T16:45:56.011Z,19.20
2019-04-01T16:48:26.425Z,19.10
2019-04-01T16:50:54.828Z,19.20
2019-04-01T16:53:23.248Z,19.20
2019-04-01T16:55:51.725Z,19.10
2019-04-01T16:58:20.126Z,18.90
2019-04-01T17:00:48.527Z,18.90
2019-04-01T17:03:16.972Z,18.80
2019-04-01T17:05:46.813Z,18.70
2019-04-01T17:08:15.438Z,18.60
2019-04-01T17:10:43.891Z,18.60
2019-04-01T17:13:12.304Z,18.50
2019-04-01T17:15:40.707Z,18.40
2019-04-01T17:18:09.101Z,18.40
2019-04-01T17:20:37.540Z,18.40
2019-04-01T17:23:06.046Z,18.30
2019-04-01T17:25:34.557Z,18.30
2019-04-01T17:28:02.966Z,18.10
2019-04-01T17:30:31.474Z,18.00
2019-04-01T17:32:59.904Z,17.90
2019-04-01T17:35:29.340Z,17.80
2019-04-01T17:37:57.740Z,17.70
2019-04-01T17:40:28.166Z,17.60
2019-04-01T17:42:56.569Z,17.40
2019-04-01T17:45:30.881Z,17.30
2019-04-01T17:48:00.644Z,17.20
2019-04-01T17:50:29.466Z,17.00
2019-04-01T17:52:58.962Z,16.90
2019-04-01T17:55:27.397Z,16.80
2019-04-01T17:57:55.777Z,16.70
2019-04-01T18:00:25.922Z,16.50
2019-04-01T18:02:54.331Z,16.40
2019-04-01T18:05:22.898Z,16.20
2019-04-01T18:07:51.343Z,16.00
2019-04-01T18:10:20.625Z,15.80
2019-04-01T18:12:49.990Z,15.70
2019-04-01T18:15:20.677Z,15.50
2019-04-01T18:17:48.668Z,15.40
2019-04-01T18:20:20.035Z,15.30
2019-04-01T18:22:47.390Z,15.20
2019-04-01T18:25:15.868Z,15.10
2019-04-01T18:27:44.357Z,15.10
2019-04-01T18:30:13.397Z,15.10
2019-04-01T18:32:41.823Z,14.90
2019-04-01T18:35:10.361Z,14.60
2019-04-01T18:37:38.797Z,14.50
2019-04-01T18:40:07.347Z,14.40
2019-04-01T18:42:35.766Z,14.10
2019-04-01T18:45:06.899Z,14.00
2019-04-01T18:47:38.650Z,13.80
2019-04-01T18:50:06.906Z,13.50
2019-04-01T18:52:35.415Z,13.40
2019-04-01T18:55:07.885Z,13.40
2019-04-01T18:57:35.717Z,13.30
2019-04-01T19:00:06.618Z,13.20
2019-04-01T19:02:35.048Z,13.10
2019-04-01T19:05:03.573Z,13.10
2019-04-01T19:07:32.012Z,13.10
2019-04-01T19:10:06.329Z,13.10
2019-04-01T19:12:31.485Z,13.00
2019-04-01T19:15:02.376Z,13.00
2019-04-01T19:17:30.028Z,12.80
2019-04-01T19:19:59.356Z,12.80
2019-04-01T19:22:27.801Z,12.70
2019-04-01T19:24:57.025Z,12.70
2019-04-01T19:27:25.528Z,12.60
2019-04-01T19:29:53.917Z,12.60
2019-04-01T19:32:22.410Z,12.60
2019-04-01T19:34:50.815Z,12.40
2019-04-01T19:37:19.245Z,12.40
2019-04-01T19:39:47.637Z,12.30
2019-04-01T19:42:16.053Z,12.30
2019-04-01T19:44:46.424Z,12.30
2019-04-01T19:47:15.131Z,12.30
2019-04-01T19:49:43.611Z,12.40
2019-04-01T19:52:12.028Z,12.40
2019-04-01T19:54:40.445Z,12.40
2019-04-01T19:57:08.930Z,12.40
2019-04-01T19:59:37.326Z,12.40
2019-04-01T20:02:05.759Z,12.30
2019-04-01T20:04:34.180Z,12.20
2019-04-01T20:07:02.927Z,12.20
2019-04-01T20:09:31.401Z,12.20
2019-04-01T20:11:59.823Z,12.00
2019-04-01T20:14:28.514Z,12.00
2019-04-01T20:16:56.941Z,11.80
2019-04-01T20:19:25.339Z,11.70
2019-04-01T20:21:53.742Z,11.60
2019-04-01T20:24:22.395Z,11.50
2019-04-01T20:26:50.809Z,11.40
2019-04-01T20:29:19.222Z,11.40
2019-04-01T20:31:47.637Z,11.30
2019-04-01T20:34:20.047Z,11.30
2019-04-01T20:36:46.186Z,11.30
2019-04-01T20:39:14.598Z,11.20
2019-04-01T20:41:43.034Z,11.20
2019-04-01T20:44:12.395Z,11.30
2019-04-01T20:46:40.863Z,11.30
2019-04-01T20:49:09.283Z,11.30
2019-04-01T20:51:37.692Z,11.30
2019-04-01T20:54:06.168Z,11.30
2019-04-01T20:56:34.607Z,11.30
2019-04-01T20:59:03.070Z,11.30
2019-04-01T21:01:31.550Z,11.20
2019-04-01T21:03:59.945Z,11.20
2019-04-01T21:06:28.352Z,11.10
2019-04-01T21:08:56.765Z,11.10
2019-04-01T21:11:25.162Z,11.10
2019-04-01T21:13:53.596Z,11.10
2019-04-01T21:16:22.004Z,11.10
2019-04-01T21:18:50.415Z,11.10
2019-04-01T21:21:18.817Z,11.10
2019-04-01T21:23:47.238Z,11.00
2019-04-01T21:26:15.314Z,11.00
2019-04-01T21:28:43.728Z,11.00
2019-04-01T21:31:12.135Z,10.80
2019-04-01T21:33:41.158Z,10.80
2019-04-01T21:36:10.613Z,10.80
2019-04-01T21:38:39.036Z,10.70
2019-04-01T21:41:07.432Z,10.60
2019-04-01T21:43:35.845Z,10.50
2019-04-01T21:46:04.322Z,10.40
2019-04-01T21:48:32.749Z,10.20
2019-04-01T21:51:01.141Z,10.20
2019-04-01T21:53:31.046Z,10.10
2019-04-01T21:55:59.767Z,10.00
2019-04-01T21:58:28.211Z,10.00
2019-04-01T22:00:57.674Z,9.90
2019-04-01T22:03:26.150Z,10.10
2019-04-01T22:05:55.550Z,10.10
2019-04-01T22:08:23.988Z,10.10
2019-04-01T22:10:52.384Z,10.10
2019-04-01T22:13:20.803Z,10.20
2019-04-01T22:15:50.023Z,10.10
2019-04-01T22:18:18.915Z,10.10
2019-04-01T22:20:47.593Z,10.20
2019-04-01T22:23:16.041Z,10.10
2019-04-01T22:25:44.483Z,10.10
2019-04-01T22:28:12.898Z,10.10
2019-04-01T22:30:41.286Z,10.10
2019-04-01T22:33:11.117Z,10.10
2019-04-01T22:35:41.583Z,10.20
2019-04-01T22:38:09.835Z,10.10
2019-04-01T22:40:38.250Z,10.10
2019-04-01T22:43:06.663Z,10.10
2019-04-01T22:45:35.062Z,10.10
2019-04-01T22:48:03.471Z,10.00
2019-04-01T22:50:31.873Z,9.90
2019-04-01T22:53:00.279Z,9.80
2019-04-01T22:55:28.766Z,9.70
2019-04-01T22:57:57.177Z,9.70
2019-04-01T23:00:25.706Z,9.70
2019-04-01T23:02:54.116Z,9.60
2019-04-01T23:05:22.510Z,9.60
2019-04-01T23:07:50.935Z,9.60
2019-04-01T23:10:19.377Z,9.60
2019-04-01T23:12:47.841Z,9.60
2019-04-01T23:15:16.395Z,9.60
2019-04-01T23:17:47.469Z,9.60
2019-04-01T23:20:15.878Z,9.60
2019-04-01T23:22:44.371Z,9.60
2019-04-01T23:25:12.951Z,9.70
2019-04-01T23:27:41.360Z,9.70
2019-04-01T23:30:11.679Z,9.60
2019-04-01T23:32:41.895Z,9.60
2019-04-01T23:35:12.255Z,9.60
2019-04-01T23:37:41.023Z,9.50
2019-04-01T23:40:09.679Z,9.50
2019-04-01T23:42:38.303Z,9.40
2019-04-01T23:45:07.228Z,9.40
2019-04-01T23:47:35.610Z,9.40
2019-04-01T23:50:06.466Z,9.30
2019-04-01T23:52:34.867Z,9.30
2019-04-01T23:55:04.417Z,9.30
2019-04-01T23:57:32.814Z,9.30
